createdAt,value
2023-03-12T00:01:34.538Z,5.47
2023-03-12T00:06:39.475Z,6.10
2023-03-12T00:11:42.958Z,5.72
2023-03-12T00:16:46.349Z,5.30
2023-03-12T00:21:51.181Z,5.82
2023-03-12T00:26:54.636Z,5.43
2023-03-12T00:31:58.207Z,5.22
2023-03-12T00:37:03.055Z,5.03
2023-03-12T00:42:07.351Z,5.80
2023-03-12T00:47:11.309Z,4.55
2023-03-12T00:52:16.095Z,5.28
2023-03-12T00:57:19.802Z,4.93
2023-03-12T01:02:23.504Z,5.05
2023-03-12T01:07:28.433Z,4.45
2023-03-12T01:12:31.941Z,4.18
2023-03-12T01:17:35.454Z,4.43
2023-03-12T01:22:40.529Z,4.45
2023-03-12T01:27:44.051Z,4.10
2023-03-12T01:32:47.607Z,4.18
2023-03-12T01:37:53.175Z,4.57
2023-03-12T01:42:58.406Z,4.13
2023-03-12T01:48:02.290Z,4.72
2023-03-12T01:53:07.436Z,4.13
2023-03-12T01:58:11.268Z,4.20
2023-03-12T02:03:16.335Z,4.68
2023-03-12T02:08:22.993Z,4.78
2023-03-12T02:13:28.069Z,4.63
2023-03-12T02:18:32.138Z,5.40
2023-03-12T02:23:44.533Z,5.25
2023-03-12T02:28:50.575Z,4.70
2023-03-12T02:33:56.026Z,5.22
2023-03-12T02:38:59.524Z,4.88
2023-03-12T02:44:06.955Z,4.47
2023-03-12T02:49:13.675Z,6.20
2023-03-12T02:54:19.989Z,6.00
2023-03-12T02:59:26.689Z,5.65
2023-03-12T03:04:34.784Z,5.40
2023-03-12T03:09:38.393Z,5.38
2023-03-12T03:14:43.256Z,5.35
2023-03-12T03:19:47.964Z,5.28
2023-03-12T03:24:51.630Z,5.60
2023-03-12T03:29:56.585Z,5.13
2023-03-12T03:40:53.198Z,5.47
2023-03-12T03:46:03.355Z,5.90
2023-03-12T03:51:12.166Z,6.10
2023-03-12T03:56:19.918Z,5.07
2023-03-12T04:01:27.637Z,5.05
2023-03-12T04:06:33.028Z,5.85
2023-03-12T04:11:36.817Z,5.15
2023-03-12T04:16:43.666Z,5.47
2023-03-12T04:21:48.208Z,5.30
2023-03-12T04:26:51.996Z,5.57
2023-03-12T04:31:57.113Z,5.10
2023-03-12T04:37:01.897Z,5.22
2023-03-12T04:42:06.117Z,5.22
2023-03-12T04:47:15.772Z,5.15
2023-03-12T04:52:19.385Z,5.38
2023-03-12T04:57:23.012Z,5.20
2023-03-12T05:02:27.917Z,5.28
2023-03-12T05:07:31.799Z,5.43
2023-03-12T05:12:36.132Z,4.57
2023-03-12T05:17:41.110Z,5.13
2023-03-12T05:22:45.426Z,5.20
2023-03-12T05:27:57.699Z,5.43
2023-03-12T05:33:03.264Z,4.72
2023-03-12T05:38:08.204Z,5.07
2023-03-12T05:43:12.107Z,5.20
2023-03-12T05:48:17.349Z,5.13
2023-03-12T05:53:20.820Z,4.88
2023-03-12T05:58:24.410Z,4.80
2023-03-12T06:03:29.617Z,5.35
2023-03-12T06:08:33.472Z,5.38
2023-03-12T06:13:37.129Z,4.68
2023-03-12T06:18:42.032Z,4.63
2023-03-12T06:23:46.395Z,5.53
2023-03-12T06:29:00.649Z,5.03
2023-03-12T06:34:30.581Z,4.93
2023-03-12T06:39:34.621Z,5.25
2023-03-12T06:44:38.039Z,4.60
2023-03-12T06:49:42.899Z,5.63
2023-03-12T06:54:46.417Z,5.15
2023-03-12T06:59:50.692Z,4.55
2023-03-12T07:04:55.704Z,4.47
2023-03-12T07:09:59.170Z,5.47
2023-03-12T07:15:02.707Z,5.18
2023-03-12T07:20:08.634Z,4.47
2023-03-12T07:25:12.484Z,4.90
2023-03-12T07:30:16.362Z,4.15
2023-03-12T07:35:21.288Z,4.93
2023-03-12T07:40:24.899Z,4.70
2023-03-12T07:45:28.519Z,4.25
2023-03-12T07:50:33.821Z,4.63
2023-03-12T07:55:37.256Z,4.78
2023-03-12T08:00:41.102Z,4.40
2023-03-12T08:05:45.965Z,3.88
2023-03-12T08:10:50.102Z,4.00
2023-03-12T08:15:54.724Z,4.60
2023-03-12T08:20:59.692Z,5.38
2023-03-12T08:26:03.287Z,4.82
2023-03-12T08:31:07.285Z,3.78
2023-03-12T08:36:12.197Z,11.95
2023-03-12T08:41:15.684Z,5.93
2023-03-12T08:46:19.365Z,4.53
2023-03-12T08:51:24.290Z,3.90
2023-03-12T08:56:27.861Z,4.30
2023-03-12T09:01:31.625Z,4.07
2023-03-12T09:06:38.750Z,3.95
2023-03-12T09:11:42.618Z,4.10
2023-03-12T09:16:46.171Z,4.85
2023-03-12T09:21:51.432Z,4.80
2023-03-12T09:26:54.953Z,4.35
2023-03-12T09:31:59.502Z,4.20
2023-03-12T09:37:04.480Z,7.63
2023-03-12T09:42:17.616Z,4.47
2023-03-12T09:47:28.020Z,4.45
2023-03-12T09:52:40.867Z,4.25
2023-03-12T09:57:45.238Z,4.05
2023-03-12T10:03:00.011Z,4.03
2023-03-12T10:08:23.985Z,4.43
2023-03-12T10:13:52.186Z,4.78
2023-03-12T10:19:39.279Z,5.10
2023-03-12T10:24:57.495Z,4.15
2023-03-12T10:30:02.458Z,3.88
2023-03-12T10:35:15.834Z,2.92
2023-03-12T10:40:24.216Z,3.90
2023-03-12T10:45:33.019Z,3.45
2023-03-12T10:50:38.556Z,2.97
2023-03-12T10:55:43.687Z,3.45
2023-03-12T11:00:57.196Z,3.53
2023-03-12T11:06:02.543Z,3.42
2023-03-12T11:11:07.548Z,2.78
2023-03-12T11:16:31.410Z,3.10
2023-03-12T11:21:38.232Z,1.98
2023-03-12T11:26:51.059Z,2.10
2023-03-12T11:32:03.094Z,1.83
2023-03-12T11:37:13.090Z,1.90
2023-03-12T11:42:29.525Z,2.28
2023-03-12T11:47:50.214Z,2.20
2023-03-12T11:53:18.141Z,1.95
2023-03-12T11:58:34.256Z,1.95
2023-03-12T12:04:28.553Z,1.45
2023-03-12T12:09:40.066Z,1.65
2023-03-12T12:14:59.115Z,1.92
2023-03-12T12:20:17.506Z,2.10
2023-03-12T12:25:30.188Z,2.15
2023-03-12T12:30:48.399Z,2.00
2023-03-12T12:35:52.430Z,2.10
2023-03-12T12:41:01.393Z,1.92
2023-03-12T12:46:10.201Z,1.77
2023-03-12T12:51:14.193Z,2.20
2023-03-12T12:56:23.330Z,1.67
2023-03-12T13:01:28.958Z,1.77
2023-03-12T13:06:54.904Z,2.00
2023-03-12T13:11:58.365Z,1.63
2023-03-12T13:17:34.887Z,1.50
2023-03-12T13:23:03.063Z,1.42
2023-03-12T13:28:32.795Z,1.73
2023-03-12T13:33:46.341Z,1.75
2023-03-12T13:38:56.321Z,2.13
2023-03-12T13:44:00.135Z,2.85
2023-03-12T13:49:12.234Z,2.28
2023-03-12T13:54:19.789Z,2.50
2023-03-12T13:59:25.932Z,3.00
2023-03-12T14:04:36.135Z,2.80
2023-03-12T14:15:02.714Z,2.95
2023-03-12T14:20:15.964Z,1.92
2023-03-12T14:25:31.662Z,2.00
2023-03-12T14:30:45.831Z,2.05
2023-03-12T14:35:54.745Z,1.95
2023-03-12T14:41:03.193Z,2.17
2023-03-12T14:46:15.286Z,1.75
2023-03-12T14:51:24.468Z,1.58
2023-03-12T14:56:32.539Z,1.73
2023-03-12T15:01:40.625Z,1.60
2023-03-12T15:06:48.287Z,2.03
2023-03-12T15:11:55.434Z,2.00
2023-03-12T15:17:00.521Z,1.27
2023-03-12T15:22:06.496Z,1.58
2023-03-12T15:27:21.329Z,1.70
2023-03-12T15:32:26.020Z,1.95
2023-03-12T15:37:40.540Z,1.40
2023-03-12T15:42:47.887Z,1.42
2023-03-12T15:47:54.618Z,1.50
2023-03-12T15:53:05.961Z,1.92
2023-03-12T15:58:25.752Z,1.67
2023-03-12T16:03:30.804Z,1.60
2023-03-12T16:08:42.124Z,2.05
2023-03-12T16:13:46.801Z,2.08
2023-03-12T16:18:50.217Z,1.75
2023-03-12T16:23:55.154Z,1.75
2023-03-12T16:28:59.705Z,2.22
2023-03-12T16:34:03.231Z,1.95
2023-03-12T16:39:07.997Z,2.00
2023-03-12T16:44:19.604Z,2.10
2023-03-12T16:49:23.391Z,1.70
2023-03-12T16:54:28.267Z,1.77
2023-03-12T16:59:33.276Z,2.00
2023-03-12T17:04:36.825Z,2.30
2023-03-12T17:09:42.045Z,1.77
2023-03-12T17:14:45.586Z,2.25
2023-03-12T17:19:49.072Z,2.28
2023-03-12T17:24:54.014Z,2.55
2023-03-12T17:29:57.481Z,2.30
2023-03-12T17:35:03.244Z,2.28
2023-03-12T17:40:11.098Z,1.90
2023-03-12T17:45:14.871Z,2.13
2023-03-12T17:50:18.617Z,1.83
2023-03-12T17:55:23.484Z,1.80
2023-03-12T18:00:27.133Z,2.00
2023-03-12T18:05:31.199Z,2.08
2023-03-12T18:10:39.040Z,1.88
2023-03-12T18:15:42.682Z,2.63
2023-03-12T18:20:46.279Z,2.50
2023-03-12T18:25:51.099Z,2.50
2023-03-12T18:30:54.836Z,2.60
2023-03-12T18:35:58.428Z,2.50
2023-03-12T18:41:07.709Z,2.80
2023-03-12T18:46:13.007Z,3.25
2023-03-12T18:51:16.548Z,2.83
2023-03-12T18:56:24.749Z,2.25
2023-03-12T19:01:28.346Z,2.60
2023-03-12T19:06:47.823Z,2.25
2023-03-12T19:11:55.057Z,2.55
2023-03-12T19:16:58.927Z,2.13
2023-03-12T19:22:02.390Z,2.15
2023-03-12T19:27:07.343Z,2.17
2023-03-12T19:32:10.801Z,1.90
2023-03-12T19:37:14.328Z,2.20
2023-03-12T19:42:19.240Z,2.50
2023-03-12T19:47:22.738Z,2.08
2023-03-12T19:52:26.319Z,2.45
2023-03-12T19:57:31.587Z,2.25
2023-03-12T20:02:35.248Z,2.33
2023-03-12T20:07:38.795Z,2.72
2023-03-12T20:12:43.695Z,2.58
2023-03-12T20:17:47.574Z,2.78
2023-03-12T20:22:52.264Z,2.20
2023-03-12T20:27:58.048Z,2.40
2023-03-12T20:33:01.664Z,2.20
2023-03-12T20:38:05.352Z,2.35
2023-03-12T20:43:10.269Z,2.08
2023-03-12T20:48:13.769Z,2.58
2023-03-12T20:53:17.369Z,2.40
2023-03-12T20:58:23.028Z,2.20
2023-03-12T21:03:26.512Z,2.45
2023-03-12T21:08:30.954Z,2.20
2023-03-12T21:13:37.304Z,2.30
2023-03-12T21:18:40.793Z,2.38
2023-03-12T21:23:44.506Z,2.30
2023-03-12T21:28:49.375Z,2.30
2023-03-12T21:33:55.878Z,2.47
2023-03-12T21:39:02.432Z,2.60
2023-03-12T21:44:07.400Z,2.60
2023-03-12T21:49:11.023Z,2.65
2023-03-12T21:54:14.614Z,2.03
2023-03-12T21:59:19.507Z,2.38
2023-03-12T22:04:23.612Z,1.98
2023-03-12T22:09:27.380Z,2.38
2023-03-12T22:19:42.162Z,2.03
2023-03-12T22:24:45.615Z,2.50
2023-03-12T22:29:52.945Z,2.80
2023-03-12T22:34:56.360Z,2.38
2023-03-12T22:40:01.513Z,2.72
2023-03-12T22:45:07.921Z,2.90
2023-03-12T22:50:12.703Z,2.40
2023-03-12T22:55:16.383Z,2.70
2023-03-12T23:00:49.283Z,2.88
2023-03-12T23:05:52.625Z,2.63
2023-03-12T23:10:57.729Z,3.17
2023-03-12T23:16:04.394Z,3.08
2023-03-12T23:21:09.605Z,2.10
2023-03-12T23:26:18.985Z,2.08
2023-03-12T23:31:23.916Z,2.60
2023-03-12T23:36:27.634Z,2.80
2023-03-12T23:41:31.200Z,2.55
2023-03-12T23:46:36.194Z,2.63
2023-03-12T23:51:41.025Z,2.70
2023-03-12T23:56:44.479Z,3.30
